sensor_id;sensor_type;location;lat;lon;timestamp;P1;durP1;ratioP1;P2;durP2;ratioP2
10565;SDS011;5331;48.148;16.326;2023-04-24T00:01:33;7.50;;;5.38;;
10565;SDS011;5331;48.148;16.326;2023-04-24T00:04:03;5.55;;;5.15;;
10565;SDS011;5331;48.148;16.326;2023-04-24T00:06:31;5.28;;;4.80;;
10565;SDS011;5331;48.148;16.326;2023-04-24T00:08:59;6.35;;;5.30;;
10565;SDS011;5331;48.148;16.326;2023-04-24T00:11:26;5.47;;;4.88;;
10565;SDS011;5331;48.148;16.326;2023-04-24T00:13:53;5.20;;;4.75;;
10565;SDS011;5331;48.148;16.326;2023-04-24T00:16:20;5.53;;;5.03;;
10565;SDS011;5331;48.148;16.326;2023-04-24T00:18:47;5.68;;;5.00;;
10565;SDS011;5331;48.148;16.326;2023-04-24T00:21:16;6.22;;;5.00;;
10565;SDS011;5331;48.148;16.326;2023-04-24T00:23:43;4.95;;;4.55;;
10565;SDS011;5331;48.148;16.326;2023-04-24T00:26:10;5.55;;;5.05;;
10565;SDS011;5331;48.148;16.326;2023-04-24T00:28:37;5.03;;;4.53;;
10565;SDS011;5331;48.148;16.326;2023-04-24T00:31:04;6.38;;;5.78;;
10565;SDS011;5331;48.148;16.326;2023-04-24T00:33:31;6.57;;;5.97;;
10565;SDS011;5331;48.148;16.326;2023-04-24T00:35:57;6.82;;;5.25;;
10565;SDS011;5331;48.148;16.326;2023-04-24T00:38:26;5.50;;;4.82;;
10565;SDS011;5331;48.148;16.326;2023-04-24T00:40:53;5.78;;;4.75;;
10565;SDS011;5331;48.148;16.326;2023-04-24T00:43:20;6.07;;;5.47;;
10565;SDS011;5331;48.148;16.326;2023-04-24T00:45:47;5.50;;;5.03;;
10565;SDS011;5331;48.148;16.326;2023-04-24T00:48:15;5.22;;;4.82;;
10565;SDS011;5331;48.148;16.326;2023-04-24T00:50:43;5.68;;;5.18;;
10565;SDS011;5331;48.148;16.326;2023-04-24T00:53:10;5.85;;;5.20;;
10565;SDS011;5331;48.148;16.326;2023-04-24T00:55:38;5.78;;;5.28;;
10565;SDS011;5331;48.148;16.326;2023-04-24T00:58:05;5.78;;;5.28;;
10565;SDS011;5331;48.148;16.326;2023-04-24T01:00:33;6.18;;;5.40;;
10565;SDS011;5331;48.148;16.326;2023-04-24T01:03:00;5.40;;;4.97;;
10565;SDS011;5331;48.148;16.326;2023-04-24T01:05:30;5.82;;;5.05;;
10565;SDS011;5331;48.148;16.326;2023-04-24T01:07:58;5.60;;;4.85;;
10565;SDS011;5331;48.148;16.326;2023-04-24T01:10:27;5.80;;;5.20;;
10565;SDS011;5331;48.148;16.326;2023-04-24T01:12:59;5.95;;;5.35;;
10565;SDS011;5331;48.148;16.326;2023-04-24T01:15:26;5.90;;;5.35;;
10565;SDS011;5331;48.148;16.326;2023-04-24T01:17:53;6.43;;;5.60;;
10565;SDS011;5331;48.148;16.326;2023-04-24T01:20:21;5.10;;;4.70;;
10565;SDS011;5331;48.148;16.326;2023-04-24T01:22:51;6.05;;;5.55;;
10565;SDS011;5331;48.148;16.326;2023-04-24T01:25:18;5.93;;;5.28;;
10565;SDS011;5331;48.148;16.326;2023-04-24T01:27:45;5.60;;;4.78;;
10565;SDS011;5331;48.148;16.326;2023-04-24T01:30:12;5.45;;;4.95;;
10565;SDS011;5331;48.148;16.326;2023-04-24T01:32:40;5.82;;;5.32;;
10565;SDS011;5331;48.148;16.326;2023-04-24T01:35:09;7.00;;;5.72;;
10565;SDS011;5331;48.148;16.326;2023-04-24T01:37:36;5.88;;;5.25;;
10565;SDS011;5331;48.148;16.326;2023-04-24T01:40:05;5.20;;;4.70;;
10565;SDS011;5331;48.148;16.326;2023-04-24T01:42:34;6.38;;;5.80;;
10565;SDS011;5331;48.148;16.326;2023-04-24T01:45:01;5.53;;;5.03;;
10565;SDS011;5331;48.148;16.326;2023-04-24T01:47:30;6.03;;;5.53;;
10565;SDS011;5331;48.148;16.326;2023-04-24T01:49:58;6.10;;;5.28;;
10565;SDS011;5331;48.148;16.326;2023-04-24T01:52:25;5.90;;;5.18;;
10565;SDS011;5331;48.148;16.326;2023-04-24T01:54:53;6.43;;;5.80;;
10565;SDS011;5331;48.148;16.326;2023-04-24T01:57:22;7.07;;;6.40;;
10565;SDS011;5331;48.148;16.326;2023-04-24T01:59:50;6.43;;;5.82;;
10565;SDS011;5331;48.148;16.326;2023-04-24T02:02:17;6.55;;;5.95;;
10565;SDS011;5331;48.148;16.326;2023-04-24T02:04:46;7.20;;;5.30;;
10565;SDS011;5331;48.148;16.326;2023-04-24T02:07:13;5.40;;;4.90;;
10565;SDS011;5331;48.148;16.326;2023-04-24T02:09:40;5.57;;;5.07;;
10565;SDS011;5331;48.148;16.326;2023-04-24T02:12:07;6.38;;;4.68;;
10565;SDS011;5331;48.148;16.326;2023-04-24T02:14:35;5.10;;;4.70;;
10565;SDS011;5331;48.148;16.326;2023-04-24T02:17:02;5.35;;;4.55;;
10565;SDS011;5331;48.148;16.326;2023-04-24T02:19:29;5.70;;;5.13;;
10565;SDS011;5331;48.148;16.326;2023-04-24T02:21:56;5.40;;;4.90;;
10565;SDS011;5331;48.148;16.326;2023-04-24T02:24:23;5.32;;;4.88;;
10565;SDS011;5331;48.148;16.326;2023-04-24T02:26:50;5.40;;;4.90;;
10565;SDS011;5331;48.148;16.326;2023-04-24T02:29:17;4.57;;;4.18;;
10565;SDS011;5331;48.148;16.326;2023-04-24T02:31:46;4.50;;;4.00;;
10565;SDS011;5331;48.148;16.326;2023-04-24T02:34:13;3.97;;;3.67;;
10565;SDS011;5331;48.148;16.326;2023-04-24T02:36:41;3.83;;;3.53;;
10565;SDS011;5331;48.148;16.326;2023-04-24T02:39:08;4.07;;;3.53;;
10565;SDS011;5331;48.148;16.326;2023-04-24T02:41:35;4.20;;;3.90;;
10565;SDS011;5331;48.148;16.326;2023-04-24T02:44:02;4.57;;;3.90;;
10565;SDS011;5331;48.148;16.326;2023-04-24T02:46:29;3.90;;;3.60;;
10565;SDS011;5331;48.148;16.326;2023-04-24T02:48:57;3.80;;;3.50;;
10565;SDS011;5331;48.148;16.326;2023-04-24T02:51:24;3.78;;;3.20;;
10565;SDS011;5331;48.148;16.326;2023-04-24T02:53:51;3.55;;;3.25;;
10565;SDS011;5331;48.148;16.326;2023-04-24T02:56:18;3.70;;;3.40;;
10565;SDS011;5331;48.148;16.326;2023-04-24T02:58:45;4.45;;;3.60;;
10565;SDS011;5331;48.148;16.326;2023-04-24T03:01:12;3.40;;;3.10;;
10565;SDS011;5331;48.148;16.326;2023-04-24T03:03:39;3.88;;;3.58;;
10565;SDS011;5331;48.148;16.326;2023-04-24T03:06:08;3.97;;;3.67;;
10565;SDS011;5331;48.148;16.326;2023-04-24T03:08:35;3.60;;;3.30;;
10565;SDS011;5331;48.148;16.326;2023-04-24T03:11:02;3.85;;;3.55;;
10565;SDS011;5331;48.148;16.326;2023-04-24T03:13:29;3.70;;;3.40;;
10565;SDS011;5331;48.148;16.326;2023-04-24T03:15:56;4.10;;;3.63;;
10565;SDS011;5331;48.148;16.326;2023-04-24T03:18:23;3.92;;;3.25;;
10565;SDS011;5331;48.148;16.326;2023-04-24T03:20:50;3.20;;;3.00;;
10565;SDS011;5331;48.148;16.326;2023-04-24T03:23:19;3.30;;;3.10;;
10565;SDS011;5331;48.148;16.326;2023-04-24T03:25:45;3.40;;;3.13;;
10565;SDS011;5331;48.148;16.326;2023-04-24T03:28:13;3.72;;;3.45;;
10565;SDS011;5331;48.148;16.326;2023-04-24T03:30:40;3.30;;;3.00;;
10565;SDS011;5331;48.148;16.326;2023-04-24T03:33:07;3.60;;;3.30;;
10565;SDS011;5331;48.148;16.326;2023-04-24T03:35:34;3.30;;;3.10;;
10565;SDS011;5331;48.148;16.326;2023-04-24T03:38:01;3.20;;;3.00;;
10565;SDS011;5331;48.148;16.326;2023-04-24T03:40:31;3.78;;;3.30;;
10565;SDS011;5331;48.148;16.326;2023-04-24T03:42:58;3.20;;;3.00;;
10565;SDS011;5331;48.148;16.326;2023-04-24T03:45:25;3.40;;;3.20;;
10565;SDS011;5331;48.148;16.326;2023-04-24T03:47:52;3.08;;;2.88;;
10565;SDS011;5331;48.148;16.326;2023-04-24T03:50:19;3.33;;;3.13;;
10565;SDS011;5331;48.148;16.326;2023-04-24T03:52:46;3.88;;;3.20;;
10565;SDS011;5331;48.148;16.326;2023-04-24T03:55:13;3.25;;;2.95;;
10565;SDS011;5331;48.148;16.326;2023-04-24T03:57:41;2.92;;;2.72;;
10565;SDS011;5331;48.148;16.326;2023-04-24T04:00:09;3.40;;;3.10;;
10565;SDS011;5331;48.148;16.326;2023-04-24T04:02:37;3.05;;;2.85;;
10565;SDS011;5331;48.148;16.326;2023-04-24T04:05:04;3.50;;;3.30;;
10565;SDS011;5331;48.148;16.326;2023-04-24T04:07:31;3.60;;;3.40;;
10565;SDS011;5331;48.148;16.326;2023-04-24T04:09:58;4.00;;;3.20;;
10565;SDS011;5331;48.148;16.326;2023-04-24T04:12:25;4.53;;;3.30;;
10565;SDS011;5331;48.148;16.326;2023-04-24T04:14:53;3.65;;;3.35;;
10565;SDS011;5331;48.148;16.326;2023-04-24T04:17:20;3.45;;;3.17;;
10565;SDS011;5331;48.148;16.326;2023-04-24T04:19:47;3.60;;;3.30;;
10565;SDS011;5331;48.148;16.326;2023-04-24T04:22:14;3.33;;;3.00;;
10565;SDS011;5331;48.148;16.326;2023-04-24T04:24:41;3.75;;;3.40;;
10565;SDS011;5331;48.148;16.326;2023-04-24T04:27:08;3.30;;;3.10;;
10565;SDS011;5331;48.148;16.326;2023-04-24T04:29:36;4.18;;;3.80;;
10565;SDS011;5331;48.148;16.326;2023-04-24T04:32:05;3.88;;;3.58;;
10565;SDS011;5331;48.148;16.326;2023-04-24T04:34:32;3.72;;;3.42;;
10565;SDS011;5331;48.148;16.326;2023-04-24T04:36:59;3.70;;;3.40;;
10565;SDS011;5331;48.148;16.326;2023-04-24T04:39:26;3.70;;;3.40;;
10565;SDS011;5331;48.148;16.326;2023-04-24T04:41:54;3.45;;;3.20;;
10565;SDS011;5331;48.148;16.326;2023-04-24T04:44:22;3.50;;;3.20;;
10565;SDS011;5331;48.148;16.326;2023-04-24T04:46:49;3.63;;;3.40;;
10565;SDS011;5331;48.148;16.326;2023-04-24T04:49:19;3.50;;;3.20;;
10565;SDS011;5331;48.148;16.326;2023-04-24T04:51:46;3.78;;;3.47;;
10565;SDS011;5331;48.148;16.326;2023-04-24T04:54:13;3.58;;;3.28;;
10565;SDS011;5331;48.148;16.326;2023-04-24T04:56:40;3.60;;;3.35;;
10565;SDS011;5331;48.148;16.326;2023-04-24T04:59:07;3.83;;;3.30;;
10565;SDS011;5331;48.148;16.326;2023-04-24T05:01:34;3.20;;;2.97;;
10565;SDS011;5331;48.148;16.326;2023-04-24T05:04:01;3.42;;;3.05;;
10565;SDS011;5331;48.148;16.326;2023-04-24T05:06:30;3.63;;;3.38;;
10565;SDS011;5331;48.148;16.326;2023-04-24T05:08:57;3.30;;;3.10;;
10565;SDS011;5331;48.148;16.326;2023-04-24T05:11:24;3.45;;;3.15;;
10565;SDS011;5331;48.148;16.326;2023-04-24T05:13:50;3.45;;;2.97;;
10565;SDS011;5331;48.148;16.326;2023-04-24T05:16:17;3.42;;;3.13;;
10565;SDS011;5331;48.148;16.326;2023-04-24T05:18:44;3.55;;;3.17;;
10565;SDS011;5331;48.148;16.326;2023-04-24T05:21:11;3.10;;;2.80;;
10565;SDS011;5331;48.148;16.326;2023-04-24T05:23:39;4.22;;;3.20;;
10565;SDS011;5331;48.148;16.326;2023-04-24T05:26:07;3.28;;;2.97;;
10565;SDS011;5331;48.148;16.326;2023-04-24T05:28:33;3.50;;;3.10;;
10565;SDS011;5331;48.148;16.326;2023-04-24T05:31:01;4.13;;;3.40;;
10565;SDS011;5331;48.148;16.326;2023-04-24T05:33:28;3.33;;;3.08;;
10565;SDS011;5331;48.148;16.326;2023-04-24T05:35:55;3.22;;;3.03;;
10565;SDS011;5331;48.148;16.326;2023-04-24T05:38:22;3.35;;;3.15;;
10565;SDS011;5331;48.148;16.326;2023-04-24T05:40:52;3.50;;;3.20;;
10565;SDS011;5331;48.148;16.326;2023-04-24T05:43:19;3.28;;;3.00;;
10565;SDS011;5331;48.148;16.326;2023-04-24T05:45:46;3.35;;;3.10;;
10565;SDS011;5331;48.148;16.326;2023-04-24T05:48:12;3.58;;;3.17;;
10565;SDS011;5331;48.148;16.326;2023-04-24T05:50:39;2.85;;;2.67;;
10565;SDS011;5331;48.148;16.326;2023-04-24T05:53:06;3.22;;;3.03;;
10565;SDS011;5331;48.148;16.326;2023-04-24T05:55:35;3.20;;;3.00;;
10565;SDS011;5331;48.148;16.326;2023-04-24T05:58:04;2.67;;;2.50;;
10565;SDS011;5331;48.148;16.326;2023-04-24T06:00:31;3.20;;;2.90;;
10565;SDS011;5331;48.148;16.326;2023-04-24T06:02:59;3.22;;;2.90;;
10565;SDS011;5331;48.148;16.326;2023-04-24T06:05:28;2.97;;;2.70;;
10565;SDS011;5331;48.148;16.326;2023-04-24T06:07:55;2.92;;;2.72;;
10565;SDS011;5331;48.148;16.326;2023-04-24T06:10:22;3.22;;;2.55;;
10565;SDS011;5331;48.148;16.326;2023-04-24T06:12:49;3.60;;;2.50;;
10565;SDS011;5331;48.148;16.326;2023-04-24T06:15:18;2.63;;;2.38;;
10565;SDS011;5331;48.148;16.326;2023-04-24T06:17:45;2.88;;;2.67;;
10565;SDS011;5331;48.148;16.326;2023-04-24T06:20:12;3.20;;;2.90;;
10565;SDS011;5331;48.148;16.326;2023-04-24T06:22:39;2.90;;;2.70;;
10565;SDS011;5331;48.148;16.326;2023-04-24T06:25:06;2.70;;;2.50;;
10565;SDS011;5331;48.148;16.326;2023-04-24T06:27:34;2.70;;;2.50;;
10565;SDS011;5331;48.148;16.326;2023-04-24T06:30:01;3.50;;;2.80;;
10565;SDS011;5331;48.148;16.326;2023-04-24T06:32:29;2.38;;;2.17;;
10565;SDS011;5331;48.148;16.326;2023-04-24T06:34:56;2.55;;;2.45;;
10565;SDS011;5331;48.148;16.326;2023-04-24T06:37:23;2.70;;;2.50;;
10565;SDS011;5331;48.148;16.326;2023-04-24T06:39:50;2.65;;;2.45;;
10565;SDS011;5331;48.148;16.326;2023-04-24T06:42:17;9.70;;;7.03;;
10565;SDS011;5331;48.148;16.326;2023-04-24T06:44:45;4.13;;;3.15;;
10565;SDS011;5331;48.148;16.326;2023-04-24T06:47:12;3.65;;;3.30;;
10565;SDS011;5331;48.148;16.326;2023-04-24T06:49:41;16.55;;;10.57;;
10565;SDS011;5331;48.148;16.326;2023-04-24T06:52:08;25.10;;;16.58;;
10565;SDS011;5331;48.148;16.326;2023-04-24T06:54:36;19.65;;;12.93;;
10565;SDS011;5331;48.148;16.326;2023-04-24T06:57:03;11.43;;;7.90;;
10565;SDS011;5331;48.148;16.326;2023-04-24T06:59:29;2.95;;;2.75;;
10565;SDS011;5331;48.148;16.326;2023-04-24T07:01:57;2.53;;;2.42;;
10565;SDS011;5331;48.148;16.326;2023-04-24T07:04:24;2.00;;;1.80;;
10565;SDS011;5331;48.148;16.326;2023-04-24T07:06:52;2.00;;;1.80;;
10565;SDS011;5331;48.148;16.326;2023-04-24T07:09:20;2.50;;;1.73;;
10565;SDS011;5331;48.148;16.326;2023-04-24T07:11:48;1.85;;;1.75;;
10565;SDS011;5331;48.148;16.326;2023-04-24T07:14:16;1.83;;;1.73;;
10565;SDS011;5331;48.148;16.326;2023-04-24T07:16:44;2.00;;;1.90;;
10565;SDS011;5331;48.148;16.326;2023-04-24T07:19:11;2.05;;;1.80;;
10565;SDS011;5331;48.148;16.326;2023-04-24T07:21:38;1.60;;;1.50;;
10565;SDS011;5331;48.148;16.326;2023-04-24T07:24:07;1.80;;;1.70;;
10565;SDS011;5331;48.148;16.326;2023-04-24T07:26:36;1.80;;;1.70;;
10565;SDS011;5331;48.148;16.326;2023-04-24T07:29:04;1.63;;;1.52;;
10565;SDS011;5331;48.148;16.326;2023-04-24T07:31:31;1.95;;;1.77;;
10565;SDS011;5331;48.148;16.326;2023-04-24T07:33:58;2.22;;;1.83;;
10565;SDS011;5331;48.148;16.326;2023-04-24T07:36:25;2.17;;;1.92;;
10565;SDS011;5331;48.148;16.326;2023-04-24T07:38:53;1.90;;;1.80;;
10565;SDS011;5331;48.148;16.326;2023-04-24T07:41:22;2.30;;;2.00;;
10565;SDS011;5331;48.148;16.326;2023-04-24T07:43:50;2.58;;;2.38;;
10565;SDS011;5331;48.148;16.326;2023-04-24T07:46:17;2.22;;;2.00;;
10565;SDS011;5331;48.148;16.326;2023-04-24T07:48:44;2.08;;;1.92;;
10565;SDS011;5331;48.148;16.326;2023-04-24T07:51:13;2.10;;;2.00;;
10565;SDS011;5331;48.148;16.326;2023-04-24T07:53:40;2.17;;;2.08;;
10565;SDS011;5331;48.148;16.326;2023-04-24T07:56:07;3.25;;;1.80;;
10565;SDS011;5331;48.148;16.326;2023-04-24T07:58:36;1.75;;;1.65;;
10565;SDS011;5331;48.148;16.326;2023-04-24T08:01:03;2.00;;;1.90;;
10565;SDS011;5331;48.148;16.326;2023-04-24T08:03:30;1.70;;;1.60;;
10565;SDS011;5331;48.148;16.326;2023-04-24T08:05:57;1.83;;;1.73;;
10565;SDS011;5331;48.148;16.326;2023-04-24T08:08:24;1.90;;;1.80;;
10565;SDS011;5331;48.148;16.326;2023-04-24T08:10:51;2.03;;;1.67;;
10565;SDS011;5331;48.148;16.326;2023-04-24T08:13:18;2.10;;;2.00;;
10565;SDS011;5331;48.148;16.326;2023-04-24T08:15:47;1.77;;;1.67;;
10565;SDS011;5331;48.148;16.326;2023-04-24T08:18:13;1.77;;;1.67;;
10565;SDS011;5331;48.148;16.326;2023-04-24T08:20:41;1.80;;;1.70;;
10565;SDS011;5331;48.148;16.326;2023-04-24T08:23:08;1.80;;;1.73;;
10565;SDS011;5331;48.148;16.326;2023-04-24T08:25:35;1.60;;;1.60;;
10565;SDS011;5331;48.148;16.326;2023-04-24T08:28:02;1.80;;;1.70;;
10565;SDS011;5331;48.148;16.326;2023-04-24T08:30:30;1.80;;;1.70;;
10565;SDS011;5331;48.148;16.326;2023-04-24T08:32:58;1.60;;;1.50;;
10565;SDS011;5331;48.148;16.326;2023-04-24T08:35:25;1.90;;;1.60;;
10565;SDS011;5331;48.148;16.326;2023-04-24T08:37:52;1.85;;;1.75;;
10565;SDS011;5331;48.148;16.326;2023-04-24T08:40:20;1.75;;;1.73;;
10565;SDS011;5331;48.148;16.326;2023-04-24T08:42:54;1.73;;;1.67;;
10565;SDS011;5331;48.148;16.326;2023-04-24T08:45:22;1.90;;;1.80;;
10565;SDS011;5331;48.148;16.326;2023-04-24T08:47:51;1.70;;;1.60;;
10565;SDS011;5331;48.148;16.326;2023-04-24T08:50:21;1.48;;;1.38;;
10565;SDS011;5331;48.148;16.326;2023-04-24T08:52:49;1.40;;;1.40;;
10565;SDS011;5331;48.148;16.326;2023-04-24T08:55:18;1.67;;;1.60;;
10565;SDS011;5331;48.148;16.326;2023-04-24T08:57:45;1.88;;;1.50;;
10565;SDS011;5331;48.148;16.326;2023-04-24T09:00:16;1.40;;;1.40;;
10565;SDS011;5331;48.148;16.326;2023-04-24T09:02:44;1.20;;;1.20;;
10565;SDS011;5331;48.148;16.326;2023-04-24T09:05:13;1.08;;;1.05;;
10565;SDS011;5331;48.148;16.326;2023-04-24T09:07:44;1.00;;;1.00;;
10565;SDS011;5331;48.148;16.326;2023-04-24T09:10:13;1.23;;;1.17;;
10565;SDS011;5331;48.148;16.326;2023-04-24T09:12:41;1.20;;;1.20;;
10565;SDS011;5331;48.148;16.326;2023-04-24T09:15:10;1.15;;;1.00;;
10565;SDS011;5331;48.148;16.326;2023-04-24T09:17:37;1.00;;;1.00;;
10565;SDS011;5331;48.148;16.326;2023-04-24T09:20:05;1.20;;;1.20;;
10565;SDS011;5331;48.148;16.326;2023-04-24T09:22:33;0.90;;;0.90;;
10565;SDS011;5331;48.148;16.326;2023-04-24T09:25:03;1.15;;;1.08;;
10565;SDS011;5331;48.148;16.326;2023-04-24T09:27:31;1.13;;;1.10;;
10565;SDS011;5331;48.148;16.326;2023-04-24T09:29:59;1.10;;;1.10;;
10565;SDS011;5331;48.148;16.326;2023-04-24T09:32:27;1.10;;;1.10;;
10565;SDS011;5331;48.148;16.326;2023-04-24T09:35:09;1.10;;;1.10;;
10565;SDS011;5331;48.148;16.326;2023-04-24T09:37:38;1.23;;;1.23;;
10565;SDS011;5331;48.148;16.326;2023-04-24T09:40:14;1.13;;;1.13;;
10565;SDS011;5331;48.148;16.326;2023-04-24T09:42:45;1.00;;;1.00;;
10565;SDS011;5331;48.148;16.326;2023-04-24T09:45:17;1.02;;;1.02;;
10565;SDS011;5331;48.148;16.326;2023-04-24T09:47:44;1.10;;;1.10;;
10565;SDS011;5331;48.148;16.326;2023-04-24T09:50:13;1.20;;;1.20;;
10565;SDS011;5331;48.148;16.326;2023-04-24T09:52:44;5.18;;;1.10;;
10565;SDS011;5331;48.148;16.326;2023-04-24T09:55:20;1.60;;;1.50;;
10565;SDS011;5331;48.148;16.326;2023-04-24T09:57:49;1.40;;;1.40;;
10565;SDS011;5331;48.148;16.326;2023-04-24T10:00:23;1.10;;;1.10;;
10565;SDS011;5331;48.148;16.326;2023-04-24T10:02:55;1.20;;;1.10;;
10565;SDS011;5331;48.148;16.326;2023-04-24T10:05:23;1.27;;;1.20;;
10565;SDS011;5331;48.148;16.326;2023-04-24T10:07:51;1.00;;;1.00;;
10565;SDS011;5331;48.148;16.326;2023-04-24T10:10:23;1.20;;;1.20;;
10565;SDS011;5331;48.148;16.326;2023-04-24T10:12:50;1.00;;;1.00;;
10565;SDS011;5331;48.148;16.326;2023-04-24T10:15:18;1.20;;;1.10;;
10565;SDS011;5331;48.148;16.326;2023-04-24T10:17:46;1.60;;;1.00;;
10565;SDS011;5331;48.148;16.326;2023-04-24T10:20:17;0.90;;;0.90;;
10565;SDS011;5331;48.148;16.326;2023-04-24T10:22:47;1.00;;;1.00;;
10565;SDS011;5331;48.148;16.326;2023-04-24T10:25:19;0.90;;;0.90;;
10565;SDS011;5331;48.148;16.326;2023-04-24T10:27:48;1.08;;;1.08;;
10565;SDS011;5331;48.148;16.326;2023-04-24T10:30:17;1.15;;;0.90;;
10565;SDS011;5331;48.148;16.326;2023-04-24T10:32:45;1.10;;;1.10;;
10565;SDS011;5331;48.148;16.326;2023-04-24T10:35:12;1.30;;;1.20;;
10565;SDS011;5331;48.148;16.326;2023-04-24T10:37:42;1.08;;;1.08;;
10565;SDS011;5331;48.148;16.326;2023-04-24T10:40:11;1.00;;;1.00;;
10565;SDS011;5331;48.148;16.326;2023-04-24T10:42:43;1.10;;;1.10;;
10565;SDS011;5331;48.148;16.326;2023-04-24T10:45:18;1.27;;;1.17;;
10565;SDS011;5331;48.148;16.326;2023-04-24T10:47:54;0.95;;;0.95;;
10565;SDS011;5331;48.148;16.326;2023-04-24T10:50:25;1.10;;;1.10;;
10565;SDS011;5331;48.148;16.326;2023-04-24T10:52:53;1.10;;;1.10;;
10565;SDS011;5331;48.148;16.326;2023-04-24T10:55:40;1.00;;;1.00;;
10565;SDS011;5331;48.148;16.326;2023-04-24T10:58:10;1.10;;;1.10;;
10565;SDS011;5331;48.148;16.326;2023-04-24T11:00:38;1.20;;;1.10;;
10565;SDS011;5331;48.148;16.326;2023-04-24T11:03:06;1.40;;;1.10;;
10565;SDS011;5331;48.148;16.326;2023-04-24T11:05:52;1.25;;;1.15;;
10565;SDS011;5331;48.148;16.326;2023-04-24T11:08:22;1.00;;;1.00;;
10565;SDS011;5331;48.148;16.326;2023-04-24T11:11:08;1.17;;;1.10;;
10565;SDS011;5331;48.148;16.326;2023-04-24T11:16:32;0.95;;;0.95;;
10565;SDS011;5331;48.148;16.326;2023-04-24T11:19:01;1.27;;;1.20;;
10565;SDS011;5331;48.148;16.326;2023-04-24T11:21:38;1.20;;;1.20;;
10565;SDS011;5331;48.148;16.326;2023-04-24T11:26:54;1.02;;;1.02;;
10565;SDS011;5331;48.148;16.326;2023-04-24T11:29:24;1.00;;;1.00;;
10565;SDS011;5331;48.148;16.326;2023-04-24T11:32:13;1.02;;;1.02;;
10565;SDS011;5331;48.148;16.326;2023-04-24T11:34:45;1.10;;;1.10;;
10565;SDS011;5331;48.148;16.326;2023-04-24T11:37:13;1.30;;;1.30;;
10565;SDS011;5331;48.148;16.326;2023-04-24T11:39:40;1.30;;;1.30;;
10565;SDS011;5331;48.148;16.326;2023-04-24T11:42:07;1.48;;;1.38;;
10565;SDS011;5331;48.148;16.326;2023-04-24T11:44:36;1.15;;;1.15;;
10565;SDS011;5331;48.148;16.326;2023-04-24T11:47:04;1.20;;;1.20;;
10565;SDS011;5331;48.148;16.326;2023-04-24T11:49:32;1.35;;;1.30;;
10565;SDS011;5331;48.148;16.326;2023-04-24T11:51:59;1.38;;;1.27;;
10565;SDS011;5331;48.148;16.326;2023-04-24T11:54:26;1.30;;;1.30;;
10565;SDS011;5331;48.148;16.326;2023-04-24T11:56:53;1.20;;;1.20;;
10565;SDS011;5331;48.148;16.326;2023-04-24T11:59:22;1.35;;;1.30;;
10565;SDS011;5331;48.148;16.326;2023-04-24T12:01:50;1.48;;;1.23;;
10565;SDS011;5331;48.148;16.326;2023-04-24T12:04:17;1.50;;;1.20;;
10565;SDS011;5331;48.148;16.326;2023-04-24T12:07:00;2.47;;;1.40;;
10565;SDS011;5331;48.148;16.326;2023-04-24T12:09:27;1.70;;;1.60;;
10565;SDS011;5331;48.148;16.326;2023-04-24T12:11:54;1.50;;;1.50;;
10565;SDS011;5331;48.148;16.326;2023-04-24T12:14:22;1.85;;;1.75;;
10565;SDS011;5331;48.148;16.326;2023-04-24T12:16:50;1.90;;;1.80;;
10565;SDS011;5331;48.148;16.326;2023-04-24T12:19:18;1.60;;;1.50;;
10565;SDS011;5331;48.148;16.326;2023-04-24T12:21:58;1.33;;;1.33;;
10565;SDS011;5331;48.148;16.326;2023-04-24T12:24:26;1.80;;;1.70;;
10565;SDS011;5331;48.148;16.326;2023-04-24T12:26:53;1.48;;;1.35;;
10565;SDS011;5331;48.148;16.326;2023-04-24T12:29:20;1.48;;;1.38;;
10565;SDS011;5331;48.148;16.326;2023-04-24T12:31:47;1.58;;;1.48;;
10565;SDS011;5331;48.148;16.326;2023-04-24T12:34:19;3.70;;;1.80;;
10565;SDS011;5331;48.148;16.326;2023-04-24T12:36:46;1.60;;;1.50;;
10565;SDS011;5331;48.148;16.326;2023-04-24T12:39:16;1.35;;;1.35;;
10565;SDS011;5331;48.148;16.326;2023-04-24T12:41:50;1.70;;;1.60;;
10565;SDS011;5331;48.148;16.326;2023-04-24T12:44:28;1.50;;;1.40;;
10565;SDS011;5331;48.148;16.326;2023-04-24T12:46:56;1.23;;;1.23;;
10565;SDS011;5331;48.148;16.326;2023-04-24T12:49:24;1.30;;;1.30;;
10565;SDS011;5331;48.148;16.326;2023-04-24T12:51:51;1.98;;;1.60;;
10565;SDS011;5331;48.148;16.326;2023-04-24T12:54:18;1.42;;;1.42;;
10565;SDS011;5331;48.148;16.326;2023-04-24T12:56:45;2.35;;;1.70;;
10565;SDS011;5331;48.148;16.326;2023-04-24T12:59:12;1.70;;;1.60;;
10565;SDS011;5331;48.148;16.326;2023-04-24T13:01:39;1.88;;;1.50;;
10565;SDS011;5331;48.148;16.326;2023-04-24T13:04:06;1.42;;;1.38;;
10565;SDS011;5331;48.148;16.326;2023-04-24T13:06:35;1.30;;;1.30;;
10565;SDS011;5331;48.148;16.326;2023-04-24T13:09:02;1.70;;;1.40;;
10565;SDS011;5331;48.148;16.326;2023-04-24T13:11:29;1.60;;;1.50;;
10565;SDS011;5331;48.148;16.326;2023-04-24T13:13:56;1.65;;;1.55;;
10565;SDS011;5331;48.148;16.326;2023-04-24T13:16:23;1.40;;;1.40;;
10565;SDS011;5331;48.148;16.326;2023-04-24T13:18:50;1.42;;;1.33;;
10565;SDS011;5331;48.148;16.326;2023-04-24T13:21:17;1.45;;;1.45;;
10565;SDS011;5331;48.148;16.326;2023-04-24T13:23:45;1.50;;;1.40;;
10565;SDS011;5331;48.148;16.326;2023-04-24T13:26:12;1.60;;;1.60;;
10565;SDS011;5331;48.148;16.326;2023-04-24T13:28:39;1.38;;;1.27;;
10565;SDS011;5331;48.148;16.326;2023-04-24T13:31:06;1.40;;;1.30;;
10565;SDS011;5331;48.148;16.326;2023-04-24T13:33:33;1.80;;;1.70;;
10565;SDS011;5331;48.148;16.326;2023-04-24T13:36:00;1.48;;;1.38;;
10565;SDS011;5331;48.148;16.326;2023-04-24T13:38:27;1.60;;;1.50;;
10565;SDS011;5331;48.148;16.326;2023-04-24T13:40:55;1.60;;;1.50;;
10565;SDS011;5331;48.148;16.326;2023-04-24T13:43:22;1.85;;;1.48;;
10565;SDS011;5331;48.148;16.326;2023-04-24T13:45:49;1.20;;;1.20;;
10565;SDS011;5331;48.148;16.326;2023-04-24T13:48:16;1.30;;;1.20;;
10565;SDS011;5331;48.148;16.326;2023-04-24T13:50:43;1.35;;;1.25;;
10565;SDS011;5331;48.148;16.326;2023-04-24T13:53:13;2.40;;;2.10;;
10565;SDS011;5331;48.148;16.326;2023-04-24T13:55:40;1.42;;;1.38;;
10565;SDS011;5331;48.148;16.326;2023-04-24T13:58:09;1.42;;;1.33;;
10565;SDS011;5331;48.148;16.326;2023-04-24T14:00:36;1.50;;;1.40;;
10565;SDS011;5331;48.148;16.326;2023-04-24T14:03:03;1.60;;;1.50;;
10565;SDS011;5331;48.148;16.326;2023-04-24T14:05:30;1.25;;;1.25;;
10565;SDS011;5331;48.148;16.326;2023-04-24T14:07:57;1.60;;;1.50;;
10565;SDS011;5331;48.148;16.326;2023-04-24T14:10:24;1.80;;;1.70;;
10565;SDS011;5331;48.148;16.326;2023-04-24T14:12:52;1.60;;;1.50;;
10565;SDS011;5331;48.148;16.326;2023-04-24T14:15:20;1.48;;;1.30;;
10565;SDS011;5331;48.148;16.326;2023-04-24T14:17:47;1.42;;;1.38;;
10565;SDS011;5331;48.148;16.326;2023-04-24T14:20:15;1.70;;;1.60;;
10565;SDS011;5331;48.148;16.326;2023-04-24T14:22:42;2.08;;;1.80;;
10565;SDS011;5331;48.148;16.326;2023-04-24T14:25:09;2.22;;;2.03;;
10565;SDS011;5331;48.148;16.326;2023-04-24T14:27:36;2.10;;;2.00;;
10565;SDS011;5331;48.148;16.326;2023-04-24T14:30:03;2.00;;;1.90;;
10565;SDS011;5331;48.148;16.326;2023-04-24T14:32:32;1.77;;;1.67;;
10565;SDS011;5331;48.148;16.326;2023-04-24T14:34:59;1.77;;;1.67;;
10565;SDS011;5331;48.148;16.326;2023-04-24T14:37:26;1.50;;;1.50;;
10565;SDS011;5331;48.148;16.326;2023-04-24T14:39:53;1.40;;;1.40;;
10565;SDS011;5331;48.148;16.326;2023-04-24T14:42:21;1.52;;;1.50;;
10565;SDS011;5331;48.148;16.326;2023-04-24T14:44:48;1.50;;;1.40;;
10565;SDS011;5331;48.148;16.326;2023-04-24T14:47:15;2.30;;;2.20;;
10565;SDS011;5331;48.148;16.326;2023-04-24T14:49:47;1.70;;;1.60;;
10565;SDS011;5331;48.148;16.326;2023-04-24T14:52:15;1.52;;;1.42;;
10565;SDS011;5331;48.148;16.326;2023-04-24T14:54:42;1.40;;;1.40;;
10565;SDS011;5331;48.148;16.326;2023-04-24T14:57:09;1.48;;;1.30;;
10565;SDS011;5331;48.148;16.326;2023-04-24T14:59:36;1.70;;;1.60;;